sensor_id;sensor_type;location;lat;lon;timestamp;temperature;humidity
11764;DHT22;5939;56.522;14.950;2024-02-23T00:01:41;6.10;99.90
11764;DHT22;5939;56.522;14.950;2024-02-23T00:04:07;6.10;99.90
11764;DHT22;5939;56.522;14.950;2024-02-23T00:06:34;6.00;99.90
11764;DHT22;5939;56.522;14.950;2024-02-23T00:08:59;6.10;99.90
11764;DHT22;5939;56.522;14.950;2024-02-23T00:11:25;6.10;99.90
11764;DHT22;5939;56.522;14.950;2024-02-23T00:13:53;6.10;99.90
11764;DHT22;5939;56.522;14.950;2024-02-23T00:16:19;6.10;99.90
11764;DHT22;5939;56.522;14.950;2024-02-23T00:18:45;6.10;99.90
11764;DHT22;5939;56.522;14.950;2024-02-23T00:21:10;6.10;99.90
11764;DHT22;5939;56.522;14.950;2024-02-23T00:23:36;6.10;99.90
11764;DHT22;5939;56.522;14.950;2024-02-23T00:26:02;6.10;99.90
11764;DHT22;5939;56.522;14.950;2024-02-23T00:28:28;6.10;99.90
11764;DHT22;5939;56.522;14.950;2024-02-23T00:30:53;6.10;99.90
11764;DHT22;5939;56.522;14.950;2024-02-23T00:33:19;6.10;99.90
11764;DHT22;5939;56.522;14.950;2024-02-23T00:35:45;6.10;99.90
11764;DHT22;5939;56.522;14.950;2024-02-23T00:38:10;6.10;99.90
11764;DHT22;5939;56.522;14.950;2024-02-23T00:40:36;6.10;99.90
11764;DHT22;5939;56.522;14.950;2024-02-23T00:43:02;6.10;99.90
11764;DHT22;5939;56.522;14.950;2024-02-23T00:45:28;6.10;99.90
11764;DHT22;5939;56.522;14.950;2024-02-23T00:47:54;6.10;99.90
11764;DHT22;5939;56.522;14.950;2024-02-23T00:50:20;6.10;99.90
11764;DHT22;5939;56.522;14.950;2024-02-23T00:52:46;6.10;99.90
11764;DHT22;5939;56.522;14.950;2024-02-23T00:55:11;6.10;99.90
11764;DHT22;5939;56.522;14.950;2024-02-23T00:57:38;6.10;99.90
11764;DHT22;5939;56.522;14.950;2024-02-23T01:00:04;6.20;99.90
11764;DHT22;5939;56.522;14.950;2024-02-23T01:02:34;6.20;99.90
11764;DHT22;5939;56.522;14.950;2024-02-23T01:05:00;6.20;99.90
11764;DHT22;5939;56.522;14.950;2024-02-23T01:07:26;6.20;99.90
11764;DHT22;5939;56.522;14.950;2024-02-23T01:09:51;6.20;99.90
11764;DHT22;5939;56.522;14.950;2024-02-23T01:12:17;6.20;99.90
11764;DHT22;5939;56.522;14.950;2024-02-23T01:14:43;6.20;99.90
11764;DHT22;5939;56.522;14.950;2024-02-23T01:17:08;6.20;99.90
11764;DHT22;5939;56.522;14.950;2024-02-23T01:19:34;6.20;99.90
11764;DHT22;5939;56.522;14.950;2024-02-23T01:22:00;6.20;99.90
11764;DHT22;5939;56.522;14.950;2024-02-23T01:24:28;6.20;99.90
11764;DHT22;5939;56.522;14.950;2024-02-23T01:26:55;6.20;99.90
11764;DHT22;5939;56.522;14.950;2024-02-23T01:29:21;6.20;99.90
11764;DHT22;5939;56.522;14.950;2024-02-23T01:31:48;6.20;99.90
11764;DHT22;5939;56.522;14.950;2024-02-23T01:34:14;6.20;99.90
11764;DHT22;5939;56.522;14.950;2024-02-23T01:36:40;6.20;99.90
11764;DHT22;5939;56.522;14.950;2024-02-23T01:39:05;6.20;99.90
11764;DHT22;5939;56.522;14.950;2024-02-23T01:41:32;6.30;99.90
11764;DHT22;5939;56.522;14.950;2024-02-23T01:43:58;6.30;99.90
11764;DHT22;5939;56.522;14.950;2024-02-23T01:46:24;6.30;99.90
11764;DHT22;5939;56.522;14.950;2024-02-23T01:48:50;6.30;99.90
11764;DHT22;5939;56.522;14.950;2024-02-23T01:51:16;6.30;99.90
11764;DHT22;5939;56.522;14.950;2024-02-23T01:53:42;6.30;99.90
11764;DHT22;5939;56.522;14.950;2024-02-23T01:56:09;6.30;99.90
11764;DHT22;5939;56.522;14.950;2024-02-23T01:58:37;6.30;99.90
11764;DHT22;5939;56.522;14.950;2024-02-23T02:01:03;6.30;99.90
11764;DHT22;5939;56.522;14.950;2024-02-23T02:03:29;6.30;99.90
11764;DHT22;5939;56.522;14.950;2024-02-23T02:05:57;6.40;99.90
11764;DHT22;5939;56.522;14.950;2024-02-23T02:08:26;6.40;99.90
11764;DHT22;5939;56.522;14.950;2024-02-23T02:10:52;6.40;99.90
11764;DHT22;5939;56.522;14.950;2024-02-23T02:13:18;6.40;99.90
11764;DHT22;5939;56.522;14.950;2024-02-23T02:15:43;6.40;99.90
11764;DHT22;5939;56.522;14.950;2024-02-23T02:18:10;6.40;99.90
11764;DHT22;5939;56.522;14.950;2024-02-23T02:20:36;6.40;99.90
11764;DHT22;5939;56.522;14.950;2024-02-23T02:23:03;6.40;99.90
11764;DHT22;5939;56.522;14.950;2024-02-23T02:25:28;6.40;99.90
11764;DHT22;5939;56.522;14.950;2024-02-23T02:27:54;6.50;99.90
11764;DHT22;5939;56.522;14.950;2024-02-23T02:30:20;6.50;99.90
11764;DHT22;5939;56.522;14.950;2024-02-23T02:32:46;6.50;99.90
11764;DHT22;5939;56.522;14.950;2024-02-23T02:35:12;6.50;99.90
11764;DHT22;5939;56.522;14.950;2024-02-23T02:37:38;6.50;99.90
11764;DHT22;5939;56.522;14.950;2024-02-23T02:40:05;6.50;99.90
11764;DHT22;5939;56.522;14.950;2024-02-23T02:42:30;6.50;99.90
11764;DHT22;5939;56.522;14.950;2024-02-23T02:44:56;6.50;99.90
11764;DHT22;5939;56.522;14.950;2024-02-23T02:47:22;6.50;99.90
11764;DHT22;5939;56.522;14.950;2024-02-23T02:49:48;6.60;99.90
11764;DHT22;5939;56.522;14.950;2024-02-23T02:52:14;6.50;99.90
11764;DHT22;5939;56.522;14.950;2024-02-23T02:54:40;6.60;99.90
11764;DHT22;5939;56.522;14.950;2024-02-23T02:57:05;6.60;99.90
11764;DHT22;5939;56.522;14.950;2024-02-23T02:59:35;6.60;99.90
11764;DHT22;5939;56.522;14.950;2024-02-23T03:02:01;6.60;99.90
11764;DHT22;5939;56.522;14.950;2024-02-23T03:04:27;6.60;99.90
11764;DHT22;5939;56.522;14.950;2024-02-23T03:06:52;6.60;99.90
11764;DHT22;5939;56.522;14.950;2024-02-23T03:09:18;6.60;99.90
11764;DHT22;5939;56.522;14.950;2024-02-23T03:11:43;6.70;99.90
11764;DHT22;5939;56.522;14.950;2024-02-23T03:14:09;6.70;99.90
11764;DHT22;5939;56.522;14.950;2024-02-23T03:16:35;6.70;99.90
11764;DHT22;5939;56.522;14.950;2024-02-23T03:19:03;6.70;99.90
11764;DHT22;5939;56.522;14.950;2024-02-23T03:21:28;6.70;99.90
11764;DHT22;5939;56.522;14.950;2024-02-23T03:23:54;6.70;99.90
11764;DHT22;5939;56.522;14.950;2024-02-23T03:26:20;6.70;99.90
11764;DHT22;5939;56.522;14.950;2024-02-23T03:28:46;6.70;99.90
11764;DHT22;5939;56.522;14.950;2024-02-23T03:31:11;6.70;99.90
11764;DHT22;5939;56.522;14.950;2024-02-23T03:33:37;6.80;99.90
11764;DHT22;5939;56.522;14.950;2024-02-23T03:36:03;6.80;99.90
11764;DHT22;5939;56.522;14.950;2024-02-23T03:38:29;6.80;99.90
11764;DHT22;5939;56.522;14.950;2024-02-23T03:40:55;6.80;99.90
11764;DHT22;5939;56.522;14.950;2024-02-23T03:43:21;6.80;99.90
11764;DHT22;5939;56.522;14.950;2024-02-23T03:45:47;6.80;99.90
11764;DHT22;5939;56.522;14.950;2024-02-23T03:48:13;6.80;99.90
11764;DHT22;5939;56.522;14.950;2024-02-23T03:50:39;6.80;99.90
11764;DHT22;5939;56.522;14.950;2024-02-23T03:53:04;6.80;99.90
11764;DHT22;5939;56.522;14.950;2024-02-23T03:55:30;6.80;99.90
11764;DHT22;5939;56.522;14.950;2024-02-23T03:57:56;6.90;99.90
11764;DHT22;5939;56.522;14.950;2024-02-23T04:00:21;6.90;99.90
11764;DHT22;5939;56.522;14.950;2024-02-23T04:02:49;6.90;99.90
11764;DHT22;5939;56.522;14.950;2024-02-23T04:05:14;6.90;99.90
11764;DHT22;5939;56.522;14.950;2024-02-23T04:07:40;6.90;99.90
11764;DHT22;5939;56.522;14.950;2024-02-23T04:10:06;6.90;99.90
11764;DHT22;5939;56.522;14.950;2024-02-23T04:12:32;6.90;99.90
11764;DHT22;5939;56.522;14.950;2024-02-23T04:14:58;6.90;99.90
11764;DHT22;5939;56.522;14.950;2024-02-23T04:17:24;6.90;99.90
11764;DHT22;5939;56.522;14.950;2024-02-23T04:19:49;6.90;99.90
11764;DHT22;5939;56.522;14.950;2024-02-23T04:22:15;6.90;99.90
11764;DHT22;5939;56.522;14.950;2024-02-23T04:24:41;6.90;99.90
11764;DHT22;5939;56.522;14.950;2024-02-23T04:27:07;6.90;99.90
11764;DHT22;5939;56.522;14.950;2024-02-23T04:29:33;6.90;99.90
11764;DHT22;5939;56.522;14.950;2024-02-23T04:32:02;6.90;99.90
11764;DHT22;5939;56.522;14.950;2024-02-23T04:34:28;7.00;99.90
11764;DHT22;5939;56.522;14.950;2024-02-23T04:36:55;7.00;99.90
11764;DHT22;5939;56.522;14.950;2024-02-23T04:39:21;7.00;99.90
11764;DHT22;5939;56.522;14.950;2024-02-23T04:41:49;7.00;99.90
11764;DHT22;5939;56.522;14.950;2024-02-23T04:44:14;6.90;99.90
11764;DHT22;5939;56.522;14.950;2024-02-23T04:46:40;7.00;99.90
11764;DHT22;5939;56.522;14.950;2024-02-23T04:49:06;7.00;99.90
11764;DHT22;5939;56.522;14.950;2024-02-23T04:51:31;7.00;99.90
11764;DHT22;5939;56.522;14.950;2024-02-23T04:53:57;7.00;99.90
11764;DHT22;5939;56.522;14.950;2024-02-23T04:56:22;7.00;99.90
11764;DHT22;5939;56.522;14.950;2024-02-23T04:58:48;7.00;99.90
11764;DHT22;5939;56.522;14.950;2024-02-23T05:01:15;7.00;99.90
11764;DHT22;5939;56.522;14.950;2024-02-23T05:03:40;7.00;99.90
11764;DHT22;5939;56.522;14.950;2024-02-23T05:06:06;7.00;99.90
11764;DHT22;5939;56.522;14.950;2024-02-23T05:08:32;7.00;99.90
11764;DHT22;5939;56.522;14.950;2024-02-23T05:10:57;7.00;99.90
11764;DHT22;5939;56.522;14.950;2024-02-23T05:13:23;7.00;99.90
11764;DHT22;5939;56.522;14.950;2024-02-23T05:15:49;7.00;99.90
11764;DHT22;5939;56.522;14.950;2024-02-23T05:18:15;7.00;99.90
11764;DHT22;5939;56.522;14.950;2024-02-23T05:20:41;6.90;99.90
11764;DHT22;5939;56.522;14.950;2024-02-23T05:23:07;6.90;99.90
11764;DHT22;5939;56.522;14.950;2024-02-23T05:25:33;6.90;99.90
11764;DHT22;5939;56.522;14.950;2024-02-23T05:27:59;7.00;99.90
11764;DHT22;5939;56.522;14.950;2024-02-23T05:30:24;6.90;99.90
11764;DHT22;5939;56.522;14.950;2024-02-23T05:32:52;6.90;99.90
11764;DHT22;5939;56.522;14.950;2024-02-23T05:35:17;6.90;99.90
11764;DHT22;5939;56.522;14.950;2024-02-23T05:37:43;6.90;99.90
11764;DHT22;5939;56.522;14.950;2024-02-23T05:40:09;6.90;99.90
11764;DHT22;5939;56.522;14.950;2024-02-23T05:42:37;6.90;99.90
11764;DHT22;5939;56.522;14.950;2024-02-23T05:45:04;6.90;99.90
11764;DHT22;5939;56.522;14.950;2024-02-23T05:47:35;6.90;99.90
11764;DHT22;5939;56.522;14.950;2024-02-23T05:50:04;6.90;99.90
11764;DHT22;5939;56.522;14.950;2024-02-23T05:52:33;6.90;99.90
11764;DHT22;5939;56.522;14.950;2024-02-23T05:55:02;6.90;99.90
11764;DHT22;5939;56.522;14.950;2024-02-23T05:57:29;6.80;99.90
11764;DHT22;5939;56.522;14.950;2024-02-23T05:59:55;6.80;99.90
11764;DHT22;5939;56.522;14.950;2024-02-23T06:02:22;6.80;99.90
11764;DHT22;5939;56.522;14.950;2024-02-23T06:04:48;6.80;99.90
11764;DHT22;5939;56.522;14.950;2024-02-23T06:07:14;6.80;99.90
11764;DHT22;5939;56.522;14.950;2024-02-23T06:09:43;6.80;99.90
11764;DHT22;5939;56.522;14.950;2024-02-23T06:12:09;6.80;99.90
11764;DHT22;5939;56.522;14.950;2024-02-23T06:14:35;6.70;99.90
11764;DHT22;5939;56.522;14.950;2024-02-23T06:17:01;6.70;99.90
11764;DHT22;5939;56.522;14.950;2024-02-23T06:19:27;6.70;99.90
11764;DHT22;5939;56.522;14.950;2024-02-23T06:21:52;6.70;99.90
11764;DHT22;5939;56.522;14.950;2024-02-23T06:24:18;6.70;99.90
11764;DHT22;5939;56.522;14.950;2024-02-23T06:26:45;6.70;99.90
11764;DHT22;5939;56.522;14.950;2024-02-23T06:29:12;6.70;99.90
11764;DHT22;5939;56.522;14.950;2024-02-23T06:31:39;6.70;99.90
11764;DHT22;5939;56.522;14.950;2024-02-23T06:34:05;6.70;99.90
11764;DHT22;5939;56.522;14.950;2024-02-23T06:36:31;6.60;99.90
11764;DHT22;5939;56.522;14.950;2024-02-23T06:38:57;6.60;99.90
11764;DHT22;5939;56.522;14.950;2024-02-23T06:41:23;6.60;99.90
11764;DHT22;5939;56.522;14.950;2024-02-23T06:43:48;6.60;99.90
11764;DHT22;5939;56.522;14.950;2024-02-23T06:46:14;6.60;99.90
11764;DHT22;5939;56.522;14.950;2024-02-23T06:48:40;6.60;99.90
11764;DHT22;5939;56.522;14.950;2024-02-23T06:51:06;6.60;99.90
11764;DHT22;5939;56.522;14.950;2024-02-23T06:53:35;6.50;99.90
11764;DHT22;5939;56.522;14.950;2024-02-23T06:56:01;6.50;99.90
11764;DHT22;5939;56.522;14.950;2024-02-23T06:58:27;6.50;99.90
11764;DHT22;5939;56.522;14.950;2024-02-23T07:00:53;6.50;99.90
11764;DHT22;5939;56.522;14.950;2024-02-23T07:03:19;6.50;99.90
11764;DHT22;5939;56.522;14.950;2024-02-23T07:05:45;6.50;99.90
11764;DHT22;5939;56.522;14.950;2024-02-23T07:08:11;6.50;99.90
11764;DHT22;5939;56.522;14.950;2024-02-23T07:10:37;6.50;99.90
11764;DHT22;5939;56.522;14.950;2024-02-23T07:13:03;6.50;99.90
11764;DHT22;5939;56.522;14.950;2024-02-23T07:15:29;6.50;99.90
11764;DHT22;5939;56.522;14.950;2024-02-23T07:17:55;6.50;99.90
11764;DHT22;5939;56.522;14.950;2024-02-23T07:20:22;6.50;99.90
11764;DHT22;5939;56.522;14.950;2024-02-23T07:22:48;6.50;99.90
11764;DHT22;5939;56.522;14.950;2024-02-23T07:25:17;6.40;99.90
11764;DHT22;5939;56.522;14.950;2024-02-23T07:27:44;6.40;99.90
11764;DHT22;5939;56.522;14.950;2024-02-23T07:30:11;6.40;99.90
11764;DHT22;5939;56.522;14.950;2024-02-23T07:32:37;6.40;99.90
11764;DHT22;5939;56.522;14.950;2024-02-23T07:35:03;6.40;99.90
11764;DHT22;5939;56.522;14.950;2024-02-23T07:37:29;6.40;99.90
11764;DHT22;5939;56.522;14.950;2024-02-23T07:39:55;6.40;99.90
11764;DHT22;5939;56.522;14.950;2024-02-23T07:42:21;6.40;99.90
11764;DHT22;5939;56.522;14.950;2024-02-23T07:44:46;6.40;99.90
11764;DHT22;5939;56.522;14.950;2024-02-23T07:47:12;6.40;99.90
11764;DHT22;5939;56.522;14.950;2024-02-23T07:49:38;6.30;99.90
11764;DHT22;5939;56.522;14.950;2024-02-23T07:52:06;6.30;99.90
11764;DHT22;5939;56.522;14.950;2024-02-23T07:54:32;6.30;99.90
11764;DHT22;5939;56.522;14.950;2024-02-23T07:56:58;6.30;99.90
11764;DHT22;5939;56.522;14.950;2024-02-23T07:59:24;6.30;99.90
11764;DHT22;5939;56.522;14.950;2024-02-23T08:01:50;6.30;99.90
11764;DHT22;5939;56.522;14.950;2024-02-23T08:04:16;6.30;99.90
11764;DHT22;5939;56.522;14.950;2024-02-23T08:06:41;6.30;99.90
11764;DHT22;5939;56.522;14.950;2024-02-23T08:09:08;6.30;99.90
11764;DHT22;5939;56.522;14.950;2024-02-23T08:11:35;6.30;99.90
11764;DHT22;5939;56.522;14.950;2024-02-23T08:14:01;6.30;99.90
11764;DHT22;5939;56.522;14.950;2024-02-23T08:16:28;6.30;99.90
11764;DHT22;5939;56.522;14.950;2024-02-23T08:18:54;6.30;99.90
11764;DHT22;5939;56.522;14.950;2024-02-23T08:21:20;6.30;99.90
11764;DHT22;5939;56.522;14.950;2024-02-23T08:23:45;6.30;99.90
11764;DHT22;5939;56.522;14.950;2024-02-23T08:26:11;6.30;99.90
11764;DHT22;5939;56.522;14.950;2024-02-23T08:28:37;5.40;99.90
11764;DHT22;5939;56.522;14.950;2024-02-23T08:31:03;6.30;99.90
11764;DHT22;5939;56.522;14.950;2024-02-23T08:33:28;6.30;99.90
11764;DHT22;5939;56.522;14.950;2024-02-23T08:35:54;6.30;99.90
11764;DHT22;5939;56.522;14.950;2024-02-23T08:38:20;6.30;99.90
11764;DHT22;5939;56.522;14.950;2024-02-23T08:40:46;6.30;99.90
11764;DHT22;5939;56.522;14.950;2024-02-23T08:43:13;6.30;99.90
11764;DHT22;5939;56.522;14.950;2024-02-23T08:45:39;6.30;99.90
11764;DHT22;5939;56.522;14.950;2024-02-23T08:48:04;6.30;99.90
11764;DHT22;5939;56.522;14.950;2024-02-23T08:50:31;6.40;99.90
11764;DHT22;5939;56.522;14.950;2024-02-23T08:52:56;6.40;99.90
11764;DHT22;5939;56.522;14.950;2024-02-23T08:55:22;6.40;99.90
11764;DHT22;5939;56.522;14.950;2024-02-23T08:57:48;6.40;99.90
11764;DHT22;5939;56.522;14.950;2024-02-23T09:00:14;6.40;99.90
11764;DHT22;5939;56.522;14.950;2024-02-23T09:02:40;6.40;99.90
11764;DHT22;5939;56.522;14.950;2024-02-23T09:05:08;6.50;99.90
11764;DHT22;5939;56.522;14.950;2024-02-23T09:07:34;6.50;99.90
11764;DHT22;5939;56.522;14.950;2024-02-23T09:10:00;6.50;99.90
11764;DHT22;5939;56.522;14.950;2024-02-23T09:12:25;6.50;99.90
11764;DHT22;5939;56.522;14.950;2024-02-23T09:14:51;6.50;99.90
11764;DHT22;5939;56.522;14.950;2024-02-23T09:17:17;6.50;99.90
11764;DHT22;5939;56.522;14.950;2024-02-23T09:19:44;6.50;99.90
11764;DHT22;5939;56.522;14.950;2024-02-23T09:22:10;6.50;99.90
11764;DHT22;5939;56.522;14.950;2024-02-23T09:24:39;6.60;99.90
11764;DHT22;5939;56.522;14.950;2024-02-23T09:27:06;6.60;99.90
11764;DHT22;5939;56.522;14.950;2024-02-23T09:29:32;6.60;99.90
11764;DHT22;5939;56.522;14.950;2024-02-23T09:31:58;6.60;99.90
11764;DHT22;5939;56.522;14.950;2024-02-23T09:34:24;6.60;99.90
11764;DHT22;5939;56.522;14.950;2024-02-23T09:36:50;6.60;99.90
11764;DHT22;5939;56.522;14.950;2024-02-23T09:39:16;6.60;99.90
11764;DHT22;5939;56.522;14.950;2024-02-23T09:41:42;6.60;99.90
11764;DHT22;5939;56.522;14.950;2024-02-23T09:44:08;6.60;99.90
11764;DHT22;5939;56.522;14.950;2024-02-23T09:46:37;6.60;99.90
11764;DHT22;5939;56.522;14.950;2024-02-23T09:49:03;6.70;99.90
11764;DHT22;5939;56.522;14.950;2024-02-23T09:51:32;6.70;99.90
11764;DHT22;5939;56.522;14.950;2024-02-23T09:53:59;6.70;99.90
11764;DHT22;5939;56.522;14.950;2024-02-23T09:56:27;6.70;99.90
11764;DHT22;5939;56.522;14.950;2024-02-23T09:58:56;6.70;99.90
11764;DHT22;5939;56.522;14.950;2024-02-23T10:01:29;6.70;99.90
11764;DHT22;5939;56.522;14.950;2024-02-23T10:03:57;6.70;99.90
11764;DHT22;5939;56.522;14.950;2024-02-23T10:06:26;6.70;99.90
11764;DHT22;5939;56.522;14.950;2024-02-23T10:08:53;6.70;99.90
11764;DHT22;5939;56.522;14.950;2024-02-23T10:11:21;6.70;99.90
11764;DHT22;5939;56.522;14.950;2024-02-23T10:13:50;6.60;99.90
11764;DHT22;5939;56.522;14.950;2024-02-23T10:16:20;6.60;99.90
11764;DHT22;5939;56.522;14.950;2024-02-23T10:18:47;6.70;99.90
11764;DHT22;5939;56.522;14.950;2024-02-23T10:21:16;6.60;99.90
11764;DHT22;5939;56.522;14.950;2024-02-23T10:23:44;6.70;99.90
11764;DHT22;5939;56.522;14.950;2024-02-23T10:26:10;6.70;99.90
11764;DHT22;5939;56.522;14.950;2024-02-23T10:28:38;6.70;99.90
11764;DHT22;5939;56.522;14.950;2024-02-23T10:31:05;6.70;99.90
11764;DHT22;5939;56.522;14.950;2024-02-23T10:33:31;6.70;99.90
11764;DHT22;5939;56.522;14.950;2024-02-23T10:35:57;6.70;99.90
11764;DHT22;5939;56.522;14.950;2024-02-23T10:38:29;6.70;99.90
11764;DHT22;5939;56.522;14.950;2024-02-23T10:40:58;6.70;99.90
11764;DHT22;5939;56.522;14.950;2024-02-23T10:43:30;6.70;99.90
11764;DHT22;5939;56.522;14.950;2024-02-23T10:45:58;6.70;99.90
11764;DHT22;5939;56.522;14.950;2024-02-23T10:48:28;6.70;99.90
11764;DHT22;5939;56.522;14.950;2024-02-23T10:50:55;6.70;99.90
11764;DHT22;5939;56.522;14.950;2024-02-23T10:53:23;6.70;99.90
11764;DHT22;5939;56.522;14.950;2024-02-23T10:55:56;6.70;99.90
11764;DHT22;5939;56.522;14.950;2024-02-23T10:58:24;6.70;99.90
11764;DHT22;5939;56.522;14.950;2024-02-23T11:00:50;6.70;99.90
11764;DHT22;5939;56.522;14.950;2024-02-23T11:03:17;6.70;99.90
11764;DHT22;5939;56.522;14.950;2024-02-23T11:05:47;6.70;99.90
11764;DHT22;5939;56.522;14.950;2024-02-23T11:08:13;6.70;99.90
11764;DHT22;5939;56.522;14.950;2024-02-23T11:10:50;6.70;99.90
11764;DHT22;5939;56.522;14.950;2024-02-23T11:13:30;6.70;99.90
11764;DHT22;5939;56.522;14.950;2024-02-23T11:16:02;6.70;99.90
11764;DHT22;5939;56.522;14.950;2024-02-23T11:18:29;6.70;99.90
11764;DHT22;5939;56.522;14.950;2024-02-23T11:20:55;6.70;99.90
11764;DHT22;5939;56.522;14.950;2024-02-23T11:23:22;6.70;99.90
11764;DHT22;5939;56.522;14.950;2024-02-23T11:26:04;6.70;99.90
11764;DHT22;5939;56.522;14.950;2024-02-23T11:28:31;6.70;99.90
11764;DHT22;5939;56.522;14.950;2024-02-23T11:30:57;6.70;99.90
11764;DHT22;5939;56.522;14.950;2024-02-23T11:33:37;6.70;99.90
11764;DHT22;5939;56.522;14.950;2024-02-23T11:36:10;6.70;99.90
11764;DHT22;5939;56.522;14.950;2024-02-23T11:38:36;6.70;99.90
11764;DHT22;5939;56.522;14.950;2024-02-23T11:41:04;6.70;99.90
11764;DHT22;5939;56.522;14.950;2024-02-23T11:43:34;6.70;99.90
11764;DHT22;5939;56.522;14.950;2024-02-23T11:46:00;6.80;99.90
11764;DHT22;5939;56.522;14.950;2024-02-23T11:48:26;6.80;99.90
11764;DHT22;5939;56.522;14.950;2024-02-23T11:50:51;6.80;99.90
11764;DHT22;5939;56.522;14.950;2024-02-23T11:53:17;6.80;99.90
11764;DHT22;5939;56.522;14.950;2024-02-23T11:55:44;6.80;99.90
11764;DHT22;5939;56.522;14.950;2024-02-23T11:58:10;6.80;99.90
11764;DHT22;5939;56.522;14.950;2024-02-23T12:00:36;6.80;99.90
11764;DHT22;5939;56.522;14.950;2024-02-23T12:03:02;6.80;99.90
11764;DHT22;5939;56.522;14.950;2024-02-23T12:05:28;6.80;99.90
11764;DHT22;5939;56.522;14.950;2024-02-23T12:07:54;6.80;99.90
11764;DHT22;5939;56.522;14.950;2024-02-23T12:10:20;6.80;99.90
11764;DHT22;5939;56.522;14.950;2024-02-23T12:12:46;6.80;99.90
11764;DHT22;5939;56.522;14.950;2024-02-23T12:15:11;6.80;99.90
11764;DHT22;5939;56.522;14.950;2024-02-23T12:17:37;6.90;99.90
11764;DHT22;5939;56.522;14.950;2024-02-23T12:20:03;6.80;99.90
11764;DHT22;5939;56.522;14.950;2024-02-23T12:22:29;6.90;99.90
11764;DHT22;5939;56.522;14.950;2024-02-23T12:24:59;6.90;99.90
11764;DHT22;5939;56.522;14.950;2024-02-23T12:27:26;6.90;99.90
11764;DHT22;5939;56.522;14.950;2024-02-23T12:29:53;6.90;99.90
11764;DHT22;5939;56.522;14.950;2024-02-23T12:32:20;6.90;99.90
11764;DHT22;5939;56.522;14.950;2024-02-23T12:34:47;6.90;99.90
11764;DHT22;5939;56.522;14.950;2024-02-23T12:37:16;6.90;99.90
11764;DHT22;5939;56.522;14.950;2024-02-23T12:39:43;6.90;99.90
11764;DHT22;5939;56.522;14.950;2024-02-23T12:42:08;6.90;99.90
11764;DHT22;5939;56.522;14.950;2024-02-23T12:44:34;6.90;99.90
11764;DHT22;5939;56.522;14.950;2024-02-23T12:47:00;6.90;99.90
11764;DHT22;5939;56.522;14.950;2024-02-23T12:49:26;6.90;99.90
11764;DHT22;5939;56.522;14.950;2024-02-23T12:51:52;6.90;99.90
11764;DHT22;5939;56.522;14.950;2024-02-23T12:54:17;6.90;99.90
11764;DHT22;5939;56.522;14.950;2024-02-23T12:56:43;6.90;99.90
11764;DHT22;5939;56.522;14.950;2024-02-23T12:59:09;6.90;99.90
11764;DHT22;5939;56.522;14.950;2024-02-23T13:01:35;6.90;99.90
11764;DHT22;5939;56.522;14.950;2024-02-23T13:04:03;6.90;99.90
11764;DHT22;5939;56.522;14.950;2024-02-23T13:06:38;6.90;99.90
11764;DHT22;5939;56.522;14.950;2024-02-23T13:09:05;6.90;99.90
11764;DHT22;5939;56.522;14.950;2024-02-23T13:11:33;6.90;99.90
11764;DHT22;5939;56.522;14.950;2024-02-23T13:14:00;6.90;99.90
11764;DHT22;5939;56.522;14.950;2024-02-23T13:16:25;6.90;99.90
11764;DHT22;5939;56.522;14.950;2024-02-23T13:18:51;6.90;99.90
11764;DHT22;5939;56.522;14.950;2024-02-23T13:21:17;6.90;99.90
11764;DHT22;5939;56.522;14.950;2024-02-23T13:23:43;6.90;99.90
11764;DHT22;5939;56.522;14.950;2024-02-23T13:26:09;6.90;99.90
11764;DHT22;5939;56.522;14.950;2024-02-23T13:28:36;6.90;99.90
11764;DHT22;5939;56.522;14.950;2024-02-23T13:31:02;6.90;99.90
11764;DHT22;5939;56.522;14.950;2024-02-23T13:33:28;6.90;99.90
11764;DHT22;5939;56.522;14.950;2024-02-23T13:35:54;6.90;99.90
11764;DHT22;5939;56.522;14.950;2024-02-23T13:38:20;6.90;99.90
11764;DHT22;5939;56.522;14.950;2024-02-23T13:40:46;6.90;99.90
11764;DHT22;5939;56.522;14.950;2024-02-23T13:43:12;6.90;99.90
11764;DHT22;5939;56.522;14.950;2024-02-23T13:45:51;6.90;99.90
11764;DHT22;5939;56.522;14.950;2024-02-23T13:48:18;6.90;99.90
11764;DHT22;5939;56.522;14.950;2024-02-23T13:50:45;6.90;99.90
11764;DHT22;5939;56.522;14.950;2024-02-23T13:53:12;6.90;99.90
11764;DHT22;5939;56.522;14.950;2024-02-23T13:55:38;6.90;99.90
11764;DHT22;5939;56.522;14.950;2024-02-23T13:58:04;6.90;99.90
11764;DHT22;5939;56.522;14.950;2024-02-23T14:00:30;6.90;99.90
11764;DHT22;5939;56.522;14.950;2024-02-23T14:02:56;6.90;99.90
11764;DHT22;5939;56.522;14.950;2024-02-23T14:05:22;6.90;99.90
11764;DHT22;5939;56.522;14.950;2024-02-23T14:07:50;6.90;99.90
11764;DHT22;5939;56.522;14.950;2024-02-23T14:10:20;6.90;99.90
11764;DHT22;5939;56.522;14.950;2024-02-23T14:12:46;6.90;99.90
11764;DHT22;5939;56.522;14.950;2024-02-23T14:15:12;6.80;99.90
11764;DHT22;5939;56.522;14.950;2024-02-23T14:17:38;6.90;99.90
11764;DHT22;5939;56.522;14.950;2024-02-23T14:20:05;6.90;99.90
11764;DHT22;5939;56.522;14.950;2024-02-23T14:22:31;6.90;99.90
11764;DHT22;5939;56.522;14.950;2024-02-23T14:24:57;6.90;99.90
11764;DHT22;5939;56.522;14.950;2024-02-23T14:27:24;6.90;99.90
11764;DHT22;5939;56.522;14.950;2024-02-23T14:29:50;6.90;99.90
11764;DHT22;5939;56.522;14.950;2024-02-23T14:32:19;6.80;99.90
11764;DHT22;5939;56.522;14.950;2024-02-23T14:34:44;6.80;99.90
11764;DHT22;5939;56.522;14.950;2024-02-23T14:37:11;6.80;99.90
11764;DHT22;5939;56.522;14.950;2024-02-23T14:39:36;6.80;99.90
11764;DHT22;5939;56.522;14.950;2024-02-23T14:42:02;6.80;99.90
11764;DHT22;5939;56.522;14.950;2024-02-23T14:44:28;6.80;99.90
11764;DHT22;5939;56.522;14.950;2024-02-23T14:46:54;6.80;99.90
11764;DHT22;5939;56.522;14.950;2024-02-23T14:49:20;6.80;99.90
11764;DHT22;5939;56.522;14.950;2024-02-23T14:51:45;6.80;99.90
11764;DHT22;5939;56.522;14.950;2024-02-23T14:54:14;6.80;99.90
11764;DHT22;5939;56.522;14.950;2024-02-23T14:56:39;6.80;99.90
11764;DHT22;5939;56.522;14.950;2024-02-23T14:59:07;6.80;99.90
11764;DHT22;5939;56.522;14.950;2024-02-23T15:01:38;6.80;99.90
11764;DHT22;5939;56.522;14.950;2024-02-23T15:04:06;6.80;99.90
11764;DHT22;5939;56.522;14.950;2024-02-23T15:06:32;6.80;99.90
11764;DHT22;5939;56.522;14.950;2024-02-23T15:08:57;6.80;99.90
11764;DHT22;5939;56.522;14.950;2024-02-23T15:11:23;6.80;99.90
11764;DHT22;5939;56.522;14.950;2024-02-23T15:13:49;6.80;99.90
11764;DHT22;5939;56.522;14.950;2024-02-23T15:16:17;6.80;99.90
11764;DHT22;5939;56.522;14.950;2024-02-23T15:18:42;6.80;99.90
11764;DHT22;5939;56.522;14.950;2024-02-23T15:21:08;6.80;99.90
11764;DHT22;5939;56.522;14.950;2024-02-23T15:23:34;6.70;99.90
11764;DHT22;5939;56.522;14.950;2024-02-23T15:25:59;6.70;99.90
11764;DHT22;5939;56.522;14.950;2024-02-23T15:28:25;6.80;99.90
11764;DHT22;5939;56.522;14.950;2024-02-23T15:30:51;6.80;99.90
11764;DHT22;5939;56.522;14.950;2024-02-23T15:33:18;6.70;99.90
11764;DHT22;5939;56.522;14.950;2024-02-23T15:35:43;6.70;99.90
11764;DHT22;5939;56.522;14.950;2024-02-23T15:38:09;6.70;99.90
11764;DHT22;5939;56.522;14.950;2024-02-23T15:40:35;6.70;99.90